createdAt,value
2023-01-13T00:00:38.426Z,1.65
2023-01-13T00:03:07.126Z,2.10
2023-01-13T00:05:35.958Z,1.90
2023-01-13T00:08:05.345Z,1.67
2023-01-13T00:10:33.920Z,1.83
2023-01-13T00:13:03.111Z,2.72
2023-01-13T00:15:31.478Z,2.63
2023-01-13T00:18:01.207Z,1.95
2023-01-13T00:20:29.830Z,2.25
2023-01-13T00:23:00.036Z,2.10
2023-01-13T00:25:28.557Z,2.47
2023-01-13T00:27:56.987Z,2.75
2023-01-13T00:30:25.408Z,2.17
2023-01-13T00:32:53.829Z,2.47
2023-01-13T00:35:23.597Z,2.92
2023-01-13T00:37:51.998Z,2.70
2023-01-13T00:40:20.437Z,2.78
2023-01-13T00:43:06.284Z,2.55
2023-01-13T00:45:34.640Z,2.53
2023-01-13T00:48:03.052Z,2.03
2023-01-13T00:50:32.813Z,2.92
2023-01-13T00:53:01.505Z,2.72
2023-01-13T00:55:32.838Z,2.38
2023-01-13T00:58:03.588Z,2.13
2023-01-13T01:00:32.063Z,2.15
2023-01-13T01:03:00.596Z,1.63
2023-01-13T01:05:28.984Z,2.63
2023-01-13T01:07:58.781Z,2.38
2023-01-13T01:10:27.189Z,2.55
2023-01-13T01:12:55.546Z,1.88
2023-01-13T01:15:23.932Z,1.65
2023-01-13T01:17:52.344Z,2.00
2023-01-13T01:20:20.841Z,1.92
2023-01-13T01:22:49.332Z,2.20
2023-01-13T01:25:19.063Z,2.15
2023-01-13T01:27:47.499Z,1.55
2023-01-13T01:30:16.528Z,1.48
2023-01-13T01:32:44.931Z,1.45
2023-01-13T01:35:13.339Z,1.58
2023-01-13T01:37:41.760Z,1.55
2023-01-13T01:40:10.987Z,2.28
2023-01-13T01:42:58.716Z,1.20
2023-01-13T01:45:30.536Z,1.50
2023-01-13T01:48:01.066Z,1.15
2023-01-13T01:50:30.101Z,2.15
2023-01-13T01:53:00.655Z,1.40
2023-01-13T01:55:30.934Z,1.48
2023-01-13T01:58:03.887Z,2.05
2023-01-13T02:00:32.319Z,1.95
2023-01-13T02:03:01.210Z,1.63
2023-01-13T02:05:29.616Z,1.75
2023-01-13T02:07:59.330Z,1.30
2023-01-13T02:10:28.910Z,1.77
2023-01-13T02:12:57.772Z,1.00
2023-01-13T02:15:32.749Z,1.83
2023-01-13T02:18:21.884Z,1.83
2023-01-13T02:21:04.061Z,1.70
2023-01-13T02:24:01.098Z,1.35
2023-01-13T02:26:44.296Z,1.50
2023-01-13T02:29:34.693Z,1.05
2023-01-13T02:32:06.824Z,1.77
2023-01-13T02:34:40.090Z,1.30
2023-01-13T02:37:09.619Z,1.75
2023-01-13T02:39:40.530Z,1.25
2023-01-13T02:42:28.104Z,1.80
2023-01-13T02:44:59.146Z,1.33
2023-01-13T02:47:29.663Z,1.30
2023-01-13T02:50:00.850Z,1.75
2023-01-13T02:52:31.753Z,1.90
2023-01-13T02:55:02.389Z,1.92
2023-01-13T02:57:32.377Z,1.45
2023-01-13T03:00:00.916Z,1.20
2023-01-13T03:02:30.886Z,1.73
2023-01-13T03:04:59.983Z,1.70
2023-01-13T03:07:43.236Z,1.80
2023-01-13T03:10:13.124Z,1.88
2023-01-13T03:12:45.974Z,1.50
2023-01-13T03:15:18.507Z,2.88
2023-01-13T03:17:51.151Z,1.90
2023-01-13T03:20:23.343Z,1.33
2023-01-13T03:22:54.862Z,1.58
2023-01-13T03:25:25.932Z,1.92
2023-01-13T03:27:56.235Z,1.95
2023-01-13T03:30:26.629Z,2.03
2023-01-13T03:32:59.169Z,1.88
2023-01-13T03:35:29.502Z,1.50
2023-01-13T03:38:00.123Z,2.03
2023-01-13T03:40:30.706Z,2.03
2023-01-13T03:43:19.652Z,1.67
2023-01-13T03:45:49.252Z,1.17
2023-01-13T03:48:21.819Z,1.60
2023-01-13T03:50:51.535Z,1.23
2023-01-13T03:53:21.865Z,1.35
2023-01-13T03:55:52.895Z,1.30
2023-01-13T03:58:23.566Z,1.30
2023-01-13T04:00:54.653Z,1.40
2023-01-13T04:03:26.404Z,0.93
2023-01-13T04:05:58.058Z,1.08
2023-01-13T04:08:27.640Z,1.42
2023-01-13T04:10:58.204Z,1.63
2023-01-13T04:13:28.123Z,1.20
2023-01-13T04:15:56.766Z,1.23
2023-01-13T04:18:27.564Z,1.45
2023-01-13T04:20:57.973Z,1.40
2023-01-13T04:23:28.007Z,1.65
2023-01-13T04:25:57.199Z,1.38
2023-01-13T04:28:25.934Z,1.35
2023-01-13T04:30:54.541Z,1.48
2023-01-13T04:33:23.144Z,1.65
2023-01-13T04:35:53.716Z,1.90
2023-01-13T04:38:22.599Z,1.70
2023-01-13T04:40:51.028Z,1.40
2023-01-13T04:43:19.555Z,1.10
2023-01-13T04:45:47.952Z,1.67
2023-01-13T04:48:16.349Z,1.30
2023-01-13T04:50:44.755Z,1.05
2023-01-13T04:53:14.553Z,1.45
2023-01-13T04:55:44.326Z,1.00
2023-01-13T04:58:12.772Z,1.90
2023-01-13T05:00:41.217Z,0.95
2023-01-13T05:03:09.603Z,0.95
2023-01-13T05:05:38.180Z,1.30
2023-01-13T05:08:06.682Z,1.40
2023-01-13T05:10:36.487Z,1.25
2023-01-13T05:13:22.833Z,1.42
2023-01-13T05:16:11.245Z,1.10
2023-01-13T05:18:39.844Z,0.88
2023-01-13T05:21:28.643Z,1.00
2023-01-13T05:24:14.394Z,1.20
2023-01-13T05:26:44.152Z,1.25
2023-01-13T05:29:12.569Z,1.20
2023-01-13T05:31:40.969Z,1.80
2023-01-13T05:34:09.331Z,1.45
2023-01-13T05:36:37.707Z,1.50
2023-01-13T05:39:06.129Z,1.85
2023-01-13T05:41:51.988Z,1.30
2023-01-13T05:44:21.698Z,1.55
2023-01-13T05:46:50.192Z,1.73
2023-01-13T05:49:18.580Z,1.52
2023-01-13T05:51:46.991Z,1.70
2023-01-13T05:54:15.513Z,1.35
2023-01-13T05:56:43.926Z,1.55
2023-01-13T05:59:12.457Z,1.38
2023-01-13T06:01:42.224Z,1.50
2023-01-13T06:04:10.617Z,1.42
2023-01-13T06:06:39.048Z,1.40
2023-01-13T06:09:07.425Z,1.30
2023-01-13T06:11:35.839Z,1.33
2023-01-13T06:14:04.260Z,1.92
2023-01-13T06:16:32.740Z,1.20
2023-01-13T06:19:02.569Z,2.38
2023-01-13T06:21:33.020Z,1.80
2023-01-13T06:24:01.646Z,1.25
2023-01-13T06:26:30.969Z,1.98
2023-01-13T06:28:59.356Z,2.00
2023-01-13T06:31:28.689Z,1.95
2023-01-13T06:34:00.041Z,2.00
2023-01-13T06:36:33.093Z,1.98
2023-01-13T06:39:03.235Z,1.52
2023-01-13T06:41:50.456Z,2.17
2023-01-13T06:44:19.200Z,2.22
2023-01-13T06:46:47.906Z,2.25
2023-01-13T06:49:16.428Z,2.17
2023-01-13T06:51:46.556Z,2.30
2023-01-13T06:54:14.972Z,2.45
2023-01-13T06:56:43.444Z,2.10
2023-01-13T06:59:11.816Z,2.17
2023-01-13T07:01:40.559Z,1.77
2023-01-13T07:04:09.022Z,2.30
2023-01-13T07:06:37.454Z,2.15
2023-01-13T07:09:07.267Z,2.08
2023-01-13T07:11:35.759Z,1.98
2023-01-13T07:14:21.840Z,1.85
2023-01-13T07:16:50.486Z,2.88
2023-01-13T07:19:23.297Z,2.90
2023-01-13T07:21:52.703Z,2.85
2023-01-13T07:24:23.503Z,2.08
2023-01-13T07:26:52.425Z,2.65
2023-01-13T07:29:20.953Z,2.40
2023-01-13T07:31:50.261Z,2.45
2023-01-13T07:34:18.907Z,2.35
2023-01-13T07:36:47.341Z,3.10
2023-01-13T07:39:15.781Z,3.40
2023-01-13T07:42:03.278Z,1.95
2023-01-13T07:44:31.660Z,3.40
2023-01-13T07:47:00.059Z,2.67
2023-01-13T07:49:28.476Z,3.58
2023-01-13T07:51:56.887Z,2.83
2023-01-13T07:54:39.580Z,3.03
2023-01-13T07:57:10.314Z,1.95
2023-01-13T07:59:38.729Z,2.92
2023-01-13T08:02:07.246Z,1.38
2023-01-13T08:04:35.939Z,2.25
2023-01-13T08:07:04.396Z,3.17
2023-01-13T08:09:32.790Z,3.70
2023-01-13T08:12:15.079Z,2.80
2023-01-13T08:14:45.173Z,2.38
2023-01-13T08:17:13.663Z,2.22
2023-01-13T08:19:42.077Z,2.13
2023-01-13T08:22:10.552Z,2.83
2023-01-13T08:24:38.940Z,2.38
2023-01-13T08:27:07.345Z,2.55
2023-01-13T08:29:35.787Z,2.28
2023-01-13T08:32:05.727Z,3.58
2023-01-13T08:34:34.211Z,2.20
2023-01-13T08:37:02.628Z,1.85
2023-01-13T08:39:31.091Z,2.83
2023-01-13T08:41:59.492Z,2.50
2023-01-13T08:44:28.910Z,2.20
2023-01-13T08:46:57.686Z,1.85
2023-01-13T08:49:27.635Z,2.60
2023-01-13T08:51:56.204Z,3.60
2023-01-13T08:54:24.647Z,3.55
2023-01-13T08:56:53.205Z,3.05
2023-01-13T08:59:21.890Z,3.75
2023-01-13T09:01:50.475Z,2.08
2023-01-13T09:04:19.644Z,2.83
2023-01-13T09:06:49.543Z,2.38
2023-01-13T09:09:18.260Z,3.03
2023-01-13T09:12:05.266Z,2.40
2023-01-13T09:14:34.750Z,2.45
2023-01-13T09:17:03.232Z,2.45
2023-01-13T09:19:31.848Z,2.28
2023-01-13T09:22:01.640Z,2.90
2023-01-13T09:24:30.483Z,3.13
2023-01-13T09:26:58.986Z,2.78
2023-01-13T09:29:27.406Z,2.47
2023-01-13T09:31:57.869Z,3.50
2023-01-13T09:34:44.020Z,2.40
2023-01-13T09:37:13.849Z,2.67
2023-01-13T09:39:42.294Z,2.90
2023-01-13T09:42:34.245Z,2.60
2023-01-13T09:45:06.052Z,3.03
2023-01-13T09:47:36.893Z,2.75
2023-01-13T09:50:10.471Z,2.88
2023-01-13T09:52:40.773Z,3.00
2023-01-13T09:55:13.354Z,2.30
2023-01-13T09:57:41.850Z,2.30
2023-01-13T10:00:13.867Z,2.13
2023-01-13T10:02:51.603Z,2.47
2023-01-13T10:05:24.310Z,2.90
2023-01-13T10:07:54.520Z,3.10
2023-01-13T10:10:38.547Z,3.20
2023-01-13T10:13:15.112Z,2.88
2023-01-13T10:15:46.136Z,3.22
2023-01-13T10:18:18.670Z,3.95
2023-01-13T10:20:52.071Z,2.88
2023-01-13T10:23:34.365Z,2.60
2023-01-13T10:26:06.377Z,2.60
2023-01-13T10:28:34.943Z,3.00
2023-01-13T10:31:05.178Z,3.33
2023-01-13T10:33:33.593Z,2.78
2023-01-13T10:36:02.630Z,3.22
2023-01-13T10:38:37.653Z,3.17
2023-01-13T10:41:07.314Z,2.47
2023-01-13T10:43:35.783Z,3.30
2023-01-13T10:46:06.585Z,2.78
2023-01-13T10:48:36.291Z,2.90
2023-01-13T10:51:20.097Z,3.03
2023-01-13T10:53:52.567Z,3.63
2023-01-13T10:56:21.779Z,2.90
2023-01-13T10:58:50.191Z,2.53
2023-01-13T11:01:22.390Z,3.97
2023-01-13T11:03:50.907Z,4.20
2023-01-13T11:06:23.110Z,3.70
2023-01-13T11:08:55.251Z,2.67
2023-01-13T11:11:28.183Z,3.00
2023-01-13T11:14:16.123Z,3.15
2023-01-13T11:16:52.925Z,3.17
2023-01-13T11:19:24.127Z,2.90
2023-01-13T11:21:54.863Z,3.10
2023-01-13T11:24:29.144Z,2.80
2023-01-13T11:27:00.162Z,2.38
2023-01-13T11:29:30.722Z,3.15
2023-01-13T11:32:03.143Z,2.65
2023-01-13T11:34:33.780Z,2.80
2023-01-13T11:37:03.077Z,3.45
2023-01-13T11:39:43.659Z,2.92
2023-01-13T11:42:24.413Z,3.03
2023-01-13T11:44:56.924Z,2.25
2023-01-13T11:47:26.134Z,2.88
2023-01-13T11:49:54.572Z,2.55
2023-01-13T11:52:23.852Z,2.83
2023-01-13T11:55:02.366Z,3.75
2023-01-13T11:57:39.656Z,2.58
2023-01-13T12:00:28.058Z,2.92
2023-01-13T12:02:59.665Z,2.75
2023-01-13T12:05:32.953Z,2.55
2023-01-13T12:08:06.513Z,2.42
2023-01-13T12:10:46.403Z,2.80
2023-01-13T12:13:20.267Z,2.72
2023-01-13T12:16:07.300Z,1.63
2023-01-13T12:18:44.664Z,2.10
2023-01-13T12:21:19.901Z,2.83
2023-01-13T12:23:50.583Z,1.88
2023-01-13T12:26:20.767Z,1.60
2023-01-13T12:28:51.202Z,3.65
2023-01-13T12:31:20.442Z,3.90
2023-01-13T12:34:06.508Z,2.35
2023-01-13T12:36:42.464Z,2.08
2023-01-13T12:39:16.900Z,2.42
2023-01-13T12:42:07.784Z,2.47
2023-01-13T12:44:36.169Z,1.60
2023-01-13T12:47:04.885Z,2.72
2023-01-13T12:49:34.107Z,2.50
2023-01-13T12:52:13.888Z,2.47
2023-01-13T12:55:00.729Z,2.42
2023-01-13T12:57:31.275Z,2.17
2023-01-13T13:00:16.104Z,3.30
2023-01-13T13:02:45.251Z,2.42
2023-01-13T13:05:32.213Z,2.40
2023-01-13T13:08:06.904Z,1.55
2023-01-13T13:10:36.632Z,2.78
2023-01-13T13:13:19.669Z,2.85
2023-01-13T13:15:48.658Z,1.58
2023-01-13T13:18:28.474Z,1.73
2023-01-13T13:20:58.792Z,2.38
2023-01-13T13:23:48.019Z,3.17
2023-01-13T13:26:23.786Z,2.53
2023-01-13T13:29:03.195Z,2.25
2023-01-13T13:31:37.135Z,2.05
2023-01-13T13:34:10.271Z,2.13
2023-01-13T13:36:54.748Z,2.33
2023-01-13T13:39:41.971Z,2.17
2023-01-13T13:42:32.501Z,2.63
2023-01-13T13:45:21.086Z,2.17
2023-01-13T13:47:49.523Z,1.50
2023-01-13T13:50:20.456Z,2.22
2023-01-13T13:52:54.464Z,2.30
2023-01-13T13:55:24.279Z,2.38
2023-01-13T13:57:53.306Z,2.10
2023-01-13T14:00:25.432Z,2.30
2023-01-13T14:02:55.009Z,2.08
2023-01-13T14:05:24.344Z,2.83
2023-01-13T14:07:57.245Z,2.38
2023-01-13T14:10:27.174Z,3.10
2023-01-13T14:12:55.586Z,1.67
2023-01-13T14:15:31.404Z,2.20
2023-01-13T14:18:00.451Z,1.90
2023-01-13T14:20:29.762Z,2.08
2023-01-13T14:23:01.524Z,1.92
2023-01-13T14:25:31.027Z,2.35
2023-01-13T14:28:00.722Z,2.03
2023-01-13T14:30:30.648Z,2.58
2023-01-13T14:32:59.149Z,1.65
2023-01-13T14:35:27.627Z,2.63
2023-01-13T14:38:04.226Z,1.58
2023-01-13T14:40:46.485Z,2.05
2023-01-13T14:43:16.505Z,2.53
2023-01-13T14:45:57.102Z,1.65
2023-01-13T14:48:30.915Z,2.22
2023-01-13T14:50:59.410Z,2.72
2023-01-13T14:53:32.583Z,1.80
2023-01-13T14:56:01.036Z,1.85
2023-01-13T14:58:30.139Z,2.00
2023-01-13T15:01:17.287Z,1.85
2023-01-13T15:03:50.939Z,2.42
2023-01-13T15:06:26.306Z,2.00
2023-01-13T15:08:55.078Z,1.98
2023-01-13T15:11:26.136Z,2.28
2023-01-13T15:14:02.242Z,2.20
2023-01-13T15:16:33.857Z,1.20
2023-01-13T15:19:04.753Z,2.33
2023-01-13T15:21:33.129Z,1.65
2023-01-13T15:24:01.541Z,2.05
2023-01-13T15:26:30.871Z,1.90
2023-01-13T15:29:00.721Z,2.30
2023-01-13T15:31:29.528Z,2.20
2023-01-13T15:33:58.827Z,2.50
2023-01-13T15:36:31.001Z,1.63
2023-01-13T15:39:00.005Z,2.38
2023-01-13T15:41:46.332Z,2.25
2023-01-13T15:44:33.361Z,2.58
2023-01-13T15:47:03.255Z,3.05
2023-01-13T15:49:35.050Z,2.80
2023-01-13T15:52:05.835Z,2.53
2023-01-13T15:54:34.266Z,2.08
2023-01-13T15:57:02.668Z,2.85
2023-01-13T15:59:31.052Z,2.20
2023-01-13T16:01:59.406Z,2.28
2023-01-13T16:04:27.803Z,2.20
2023-01-13T16:06:56.253Z,2.38
2023-01-13T16:09:26.042Z,2.20
2023-01-13T16:11:54.420Z,2.40
2023-01-13T16:14:22.825Z,2.40
2023-01-13T16:16:51.758Z,2.42
2023-01-13T16:19:20.239Z,2.50
2023-01-13T16:21:48.603Z,2.65
2023-01-13T16:24:17.036Z,2.45
2023-01-13T16:26:46.865Z,2.70
2023-01-13T16:29:15.299Z,2.95
2023-01-13T16:31:43.667Z,2.15
2023-01-13T16:34:12.233Z,2.10
2023-01-13T16:36:40.602Z,2.40
2023-01-13T16:39:20.970Z,2.60
2023-01-13T16:41:50.748Z,2.30
2023-01-13T16:44:19.252Z,2.03
2023-01-13T16:46:47.830Z,2.50
2023-01-13T16:49:17.418Z,3.00
2023-01-13T16:51:45.828Z,2.97
2023-01-13T16:54:14.385Z,2.83
2023-01-13T16:56:42.857Z,3.70
2023-01-13T16:59:14.592Z,2.50
2023-01-13T17:01:44.697Z,3.72
2023-01-13T17:04:16.639Z,2.38
2023-01-13T17:06:46.411Z,2.75
2023-01-13T17:09:17.357Z,3.00
2023-01-13T17:11:45.803Z,2.55
2023-01-13T17:14:19.355Z,2.67
2023-01-13T17:16:48.279Z,3.17
2023-01-13T17:19:18.677Z,2.88
2023-01-13T17:21:54.032Z,2.90
2023-01-13T17:24:26.595Z,3.53
2023-01-13T17:26:55.126Z,3.38
2023-01-13T17:29:27.829Z,4.43
2023-01-13T17:31:57.983Z,3.33
2023-01-13T17:34:26.598Z,3.97
2023-01-13T17:36:55.505Z,2.92
2023-01-13T17:39:25.123Z,3.50
2023-01-13T17:41:56.487Z,3.13
2023-01-13T17:44:26.777Z,3.55
2023-01-13T17:46:55.490Z,3.22
2023-01-13T17:49:24.106Z,3.70
2023-01-13T17:51:53.722Z,3.75
2023-01-13T17:54:23.553Z,3.70
2023-01-13T17:56:53.854Z,4.32
2023-01-13T17:59:24.231Z,3.08
2023-01-13T18:01:54.589Z,3.83
2023-01-13T18:04:24.625Z,4.20
2023-01-13T18:06:53.457Z,4.20
2023-01-13T18:09:23.457Z,3.03
2023-01-13T18:11:52.928Z,3.80
2023-01-13T18:14:22.546Z,3.05
2023-01-13T18:16:51.586Z,3.30
2023-01-13T18:19:39.069Z,3.63
2023-01-13T18:22:25.245Z,3.65
2023-01-13T18:25:11.423Z,3.90
2023-01-13T18:27:41.433Z,3.13
2023-01-13T18:30:10.820Z,4.07
2023-01-13T18:32:39.907Z,5.88
2023-01-13T18:35:11.431Z,3.53
2023-01-13T18:37:42.369Z,4.47
2023-01-13T18:40:13.831Z,4.68
2023-01-13T18:42:55.023Z,3.33
2023-01-13T18:45:25.677Z,3.58
2023-01-13T18:47:54.811Z,4.38
2023-01-13T18:50:27.050Z,4.38
2023-01-13T18:52:55.746Z,4.05
2023-01-13T18:55:25.951Z,3.75
2023-01-13T18:57:56.010Z,4.07
2023-01-13T19:00:27.834Z,3.67
2023-01-13T19:05:39.765Z,3.95
2023-01-13T19:08:17.297Z,4.13
2023-01-13T19:10:46.629Z,4.47
2023-01-13T19:13:21.047Z,3.97
2023-01-13T19:15:49.839Z,4.38
2023-01-13T19:18:21.383Z,5.20
2023-01-13T19:20:51.498Z,4.20
2023-01-13T19:23:20.014Z,4.70
2023-01-13T19:25:48.491Z,4.55
2023-01-13T19:28:17.341Z,5.25
2023-01-13T19:30:45.946Z,4.45
2023-01-13T19:33:14.551Z,4.10
2023-01-13T19:35:43.086Z,5.30
2023-01-13T19:38:12.945Z,3.33
2023-01-13T19:40:41.443Z,5.40
2023-01-13T19:43:28.641Z,3.67
2023-01-13T19:45:57.221Z,5.05
2023-01-13T19:48:26.174Z,5.25
2023-01-13T19:50:54.656Z,4.85
2023-01-13T19:53:24.627Z,5.10
2023-01-13T19:55:53.103Z,3.83
2023-01-13T19:58:23.948Z,5.53
2023-01-13T20:00:52.925Z,5.40
2023-01-13T20:03:23.713Z,3.45
2023-01-13T20:05:52.426Z,4.03
2023-01-13T20:08:21.323Z,4.13
2023-01-13T20:11:11.460Z,4.05
2023-01-13T20:13:40.898Z,4.97
2023-01-13T20:16:12.737Z,4.07
2023-01-13T20:18:41.331Z,4.53
2023-01-13T20:21:10.122Z,4.25
2023-01-13T20:23:38.590Z,4.20
2023-01-13T20:26:10.079Z,4.22
2023-01-13T20:28:39.758Z,5.80
2023-01-13T20:31:09.749Z,5.40
2023-01-13T20:33:38.956Z,5.43
2023-01-13T20:36:09.538Z,4.40
2023-01-13T20:38:38.974Z,5.07
2023-01-13T20:41:22.244Z,4.38
2023-01-13T20:43:52.496Z,4.85
2023-01-13T20:46:23.517Z,4.90
2023-01-13T20:48:52.810Z,4.25
2023-01-13T20:51:25.212Z,4.85
2023-01-13T20:53:54.010Z,4.68
2023-01-13T20:56:23.142Z,5.63
2023-01-13T20:58:53.831Z,4.72
2023-01-13T21:01:23.042Z,4.40
2023-01-13T21:03:56.205Z,4.75
2023-01-13T21:06:26.530Z,4.18
2023-01-13T21:08:55.584Z,4.05
2023-01-13T21:11:38.761Z,3.80
2023-01-13T21:14:28.765Z,3.90
2023-01-13T21:17:01.772Z,3.92
2023-01-13T21:19:30.781Z,3.90
2023-01-13T21:22:02.288Z,4.50
2023-01-13T21:24:30.850Z,4.38
2023-01-13T21:27:00.520Z,3.95
2023-01-13T21:29:32.288Z,4.32
2023-01-13T21:32:01.223Z,4.03
2023-01-13T21:34:30.217Z,4.22
2023-01-13T21:37:01.341Z,4.40
2023-01-13T21:39:30.899Z,4.25
2023-01-13T21:42:16.838Z,3.70
2023-01-13T21:45:05.531Z,4.03
2023-01-13T21:47:50.545Z,4.63
2023-01-13T21:50:20.119Z,4.00
2023-01-13T21:52:52.902Z,5.13
2023-01-13T21:55:24.995Z,3.72
2023-01-13T21:57:55.400Z,3.88
2023-01-13T22:00:26.836Z,4.22
2023-01-13T22:02:55.499Z,4.93
2023-01-13T22:05:25.056Z,4.53
2023-01-13T22:07:54.787Z,4.70
2023-01-13T22:10:24.642Z,5.13
2023-01-13T22:12:55.223Z,4.45
2023-01-13T22:15:28.045Z,5.05
2023-01-13T22:17:58.288Z,5.32
2023-01-13T22:20:27.520Z,4.10
2023-01-13T22:22:56.180Z,4.13
2023-01-13T22:25:27.520Z,3.97
2023-01-13T22:28:06.068Z,3.70
2023-01-13T22:30:36.103Z,4.50
2023-01-13T22:33:05.292Z,4.20
2023-01-13T22:35:34.893Z,4.40
2023-01-13T22:38:04.768Z,4.47
2023-01-13T22:40:33.437Z,4.25
2023-01-13T22:43:01.990Z,5.00
2023-01-13T22:45:30.816Z,3.67
2023-01-13T22:48:04.915Z,4.35
2023-01-13T22:50:34.099Z,3.33
2023-01-13T22:53:02.713Z,3.42
2023-01-13T22:55:31.324Z,4.32
2023-01-13T22:58:02.886Z,4.22
2023-01-13T23:00:31.342Z,4.82
2023-01-13T23:02:59.844Z,5.47
2023-01-13T23:05:33.024Z,4.18
2023-01-13T23:08:09.494Z,4.32
2023-01-13T23:10:48.567Z,3.97
2023-01-13T23:13:25.674Z,4.20
2023-01-13T23:16:09.593Z,3.90
2023-01-13T23:18:50.515Z,4.28
2023-01-13T23:21:29.062Z,3.63
2023-01-13T23:24:04.978Z,4.05
2023-01-13T23:26:53.842Z,4.00
2023-01-13T23:29:30.134Z,3.97
2023-01-13T23:32:29.022Z,4.43
2023-01-13T23:35:09.896Z,4.25
2023-01-13T23:37:53.302Z,3.88
2023-01-13T23:40:27.722Z,3.85
2023-01-13T23:43:15.356Z,3.30
2023-01-13T23:46:04.913Z,4.15
2023-01-13T23:48:59.952Z,3.47
2023-01-13T23:51:34.100Z,3.05
2023-01-13T23:57:15.977Z,5.03
